Tiempo atmosférico en la estación meteorológica de Ayamonte, Huelva (2 m.)



Fecha
DESCASC
Temp. máxima en grados centígrados (hora)
DESCASC
Temp. mínima en grados centígrados (hora)
DESCASC
Temp. media en grados centígrados
DESCASC
Racha de viento máxima en m/sg (hora)
DESCASC
Velocidad máxima media en intervalos de 10 minutos(hora)
DESCASC
Precipitaciones diarias en mm
DESCASC
Precipitaciones de 00:00 a 06:00 en mm
DESCASC
Precipitaciones de 06:00 a 12:00 en mm
DESCASC
Precipitaciones de 12:00 a 18:00 en mm
DESCASC
Precipitaciones de 18:00 a 24:00 en mm
DESCASC
19-04-2018 24.6 (15:20) 10 (08:10) 17.3 7.22 (12:40) 3.61 (16:10) 0 0 0 0 0
18-04-2018 24.9 (15:20) 9.8 (06:50) 17.3 7.78 (17:30) 4.17 (17:30) 0 0 0 0 0
17-04-2018 23.2 (17:30) 10.9 (07:50) 17.1 6.11 (09:40) 3.06 (15:40) 0 0 0 0 0
16-04-2018 18.2 (16:40) 7.7 (08:00) 13 8.89 (17:00) 5 (19:10) 0.2 0.1 0.1 0 0
15-04-2018 17.3 (18:00) 11.2 (00:00) 14.2 9.17 (18:00) 6.11 (18:00) 3.9 0 0 0.6 3.3
14-04-2018 20.1 (14:00) 10.3 (00:00) 15.2 8.33 (16:30) 5.28 (16:20) 0 0 0 0 0
13-04-2018 18.2 (17:30) 8.3 (00:00) 13.3 10 (05:00) 5.28 (05:20) 11.8 4.2 7.6 0 0
12-04-2018 16.9 (17:30) 9.4 (00:00) 13.1 15 (13:20) 8.06 (13:20) 14.7 0 2.9 11.7 0.1
11-04-2018 18.8 (16:10) 9.1 (00:00) 13.9 10.56 (12:30) 5.28 (00:30) 0 0 0 0 0
10-04-2018 -- (--) -- (--) -- 16.94 (12:30) 10 (12:10) 10 0 3.8 6.2 0
09-04-2018 17.8 (17:00) 6.4 (00:00) 12.1 10 (16:30) 5.56 (15:40) 0 0 0 0 0
08-04-2018 18.9 (16:20) 8.1 (00:00) 13.5 14.17 (17:20) 7.5 (15:30) 1 0.1 0 0 0.9
07-04-2018 -- (--) -- (--) -- 11.94 (17:00) 6.67 (17:30) 10.2 5.4 0.2 4.1 0.5
06-04-2018 19.7 (14:40) 9.9 (00:00) 14.8 11.11 (16:00) 6.67 (16:00) 9.5 0 0 0 9.5
05-04-2018 22.8 (17:30) 9.9 (00:00) 16.3 6.11 (11:30) 2.78 (11:20) 0 0 0 0 0
04-04-2018 19.9 (14:10) 8.9 (00:00) 14.4 11.11 (14:20) 6.67 (16:20) 0 0 0 0 0
03-04-2018 20 (15:50) 10.3 (00:00) 15.2 11.67 (15:50) 7.5 (16:20) 0 0 0 0 0
02-04-2018 19.1 (15:10) 11.3 (00:00) 15.2 8.06 (17:50) 5 (15:50) 0.1 0 0 0 0.1
01-04-2018 -- (--) -- (--) -- 7.78 (15:00) 3.89 (15:00) 0 0 0 0 0
31-03-2018 -- (--) -- (--) -- 8.61 (18:10) 5.28 (18:20) 0 0 0 0 0
30-03-2018 19.4 (15:00) 10 (00:00) 14.7 12.78 (16:50) 6.39 (21:00) 0.1 0 0 0.1 0
29-03-2018 -- (--) -- (--) -- 10 (00:30) 4.72 (16:40) 0 0 0 0 0
28-03-2018 26.4 (16:30) 12 (00:00) 19.2 7.78 (21:30) 4.17 (17:20) 0 0 0 0 0
27-03-2018 -- (--) -- (--) -- 8.33 (19:20) 3.89 (17:20) 0 0 0 0 0
26-03-2018 -- (--) -- (--) -- 9.17 (03:20) 4.72 (03:00) 0 0 0 0 0
25-03-2018 19.2 (13:10) 11.4 (00:00) 15.3 13.33 (16:20) 6.11 (16:50) 0.3 0.1 0.2 0 0
24-03-2018 18.1 (16:10) 9.5 (00:00) 13.8 16.11 (02:20) 6.39 (01:20) 2.8 2.8 0 0 0
23-03-2018 16.3 (18:40) 8.1 (00:00) 12.2 11.11 (23:50) 6.11 (16:20) 0.4 0 0 0.4 0

Gráficas

Temp. máximas Temp. mínimas Temp. medias Precipitaciones Rachas de viento máximas Velocidades máximas media en intervalos de 10 minutos

Datos horarios

Fecha y hora oficial Temperatura (ºC) Velocidad del viento (km/h) Dirección del viento Racha (km/h) Dirección de racha Precipitación (mm) Presión (hPa) Tendencia (hPa) Humedad (%)
2018-04-21 23:00:00 16.4 -- -- 6 Norte 0 1013.6 1.3 93
2018-04-21 22:00:00 16.5 -- -- 7 Norte 0 1013.1 1.2 91
2018-04-21 21:00:00 16.7 -- -- 8 Norte 0 1012.4 0.1 88
2018-04-21 20:00:00 16.8 -- -- 13 Norte 0 1012.3 -0.6 88
2018-04-21 19:00:00 17.2 -- -- 18 Norte 0 1011.9 -0.8 90
2018-04-21 18:00:00 16.8 -- -- 18 Norte 0 1012.3 -1 94
2018-04-21 17:00:00 16.6 -- -- 23 Norte 0.1 1012.9 -0.5 94
2018-04-21 16:00:00 17.7 -- -- 26 Norte 0 1012.7 -0.7 94
2018-04-21 15:00:00 17 -- -- 31 Norte 0 1013.3 -0.2 98
2018-04-21 14:00:00 16.1 -- -- 29 Norte 0 1013.4 1.5 97
2018-04-21 13:00:00 15.8 -- -- 48 Norte 0 1013.4 0.1 98
2018-04-21 12:00:00 -- -- -- 52 Norte 0.7 1013.5 2.2 97
2018-04-21 11:00:00 -- -- -- 47 Norte 3.9 1011.9 3.4 97
2018-04-21 10:00:00 -- -- -- 28 Norte 1.5 1013.3 4.3 97
2018-04-21 09:00:00 -- -- -- 20 Norte 0 1011.3 0.4 96
2018-04-21 08:00:00 -- -- -- 22 Norte 0 1008.5 -3.9 98
2018-04-21 07:00:00 -- -- -- 25 Norte 0.1 1009 -4.5 98
2018-04-21 06:00:00 -- -- -- 14 Norte 0.1 1010.9 -2 98
2018-04-21 05:00:00 -- -- -- 10 Norte 0.3 1012.4 -1.6 98
2018-04-21 04:00:00 15.4 -- -- 11 Norte 1.9 1013.5 -0.2 98
2018-04-21 03:00:00 15.2 -- -- 21 Norte 0.7 1012.9 -1.5 98
2018-04-21 02:00:00 16 -- -- 14 Norte 0 1014 0.6 94
2018-04-21 01:00:00 16.3 -- -- 17 Norte 0 1013.7 1.2 91
2018-04-21 00:00:00 15.8 -- -- 14 Norte 0 1014.4 2.2 89
2018-04-20 23:00:00 16.4 -- -- 25 Norte 0 1013.4 0.7 88
2018-04-20 22:00:00 16.9 -- -- 38 Norte 0 1012.5 -1.1 85
2018-04-20 21:00:00 16.8 -- -- 35 Norte 0 1012.2 -1.4 88
2018-04-20 20:00:00 17.4 -- -- 28 Norte 0 1012.7 -0.6 82
2018-04-20 19:00:00 17.6 -- -- 26 Norte 0 1013.6 0.3 83
2018-04-20 18:00:00 17.5 -- -- 30 Norte 0 1013.6 0.9 81
2018-04-20 17:00:00 18.8 -- -- 33 Norte 0 1013.3 0 72
2018-04-20 16:00:00 19.2 -- -- 38 Norte 0 1013.3 1 70
2018-04-20 15:00:00 19.3 -- -- 39 Norte 0 1012.7 0.6 65
2018-04-20 14:00:00 19.1 -- -- 24 Norte 0 1013.3 1 65
2018-04-20 13:00:00 20 -- -- 25 Norte 0 1012.3 -0.3 59
2018-04-20 12:00:00 20.1 -- -- 35 Norte 0 1012.1 0.5 62
2018-04-20 11:00:00 18.4 -- -- 19 Norte 0 1012.3 1.3 70
2018-04-20 10:00:00 16.6 -- -- 18 Norte 0 1012.6 1.6 79
2018-04-20 09:00:00 15 -- -- 22 Norte 0 1011.6 0.3 84
2018-04-20 08:00:00 14.3 -- -- 30 Norte 0 1011 -0.8 85
2018-04-20 07:00:00 14.4 -- -- 27 Norte 0 1011 -0.8 83
2018-04-20 06:00:00 14.3 -- -- 22 Norte 0 1011.3 -1.8 82
2018-04-20 05:00:00 14.4 -- -- 17 Norte 0 1011.8 -2.3 83
2018-04-20 04:00:00 14.6 -- -- 15 Norte 0 1011.8 -2.7 83
2018-04-20 03:00:00 15.5 -- -- 31 Norte 0 1013.1 -1.1 81
2018-04-20 02:00:00 17.1 -- -- 27 Norte 0 1014.1 0.1 71
2018-04-20 01:00:00 17.4 -- -- 26 Norte 0 1014.5 0.6 71
2018-04-20 00:00:00 17.4 -- -- 24 Norte 0 1014.2 0.5 70
2018-04-19 23:00:00 17.9 -- -- 26 Norte 0 1014 0.4 67
2018-04-19 22:00:00 17.2 -- -- 10 Norte 0 1013.9 -0.1 72
2018-04-19 21:00:00 18.8 -- -- 20 Norte 0 1013.7 -0.4 60
2018-04-19 20:00:00 20.3 -- -- 22 Norte 0 1013.6 -0.9 52
2018-04-19 19:00:00 21.4 -- -- 25 Norte 0 1014 -1 48
2018-04-19 18:00:00 22.4 -- -- 25 Norte 0 1014.1 -1.4 46
2018-04-19 17:00:00 22.6 -- -- 21 Norte 0 1014.5 -1.6 44
2018-04-19 16:00:00 23.1 -- -- 23 Norte 0 1015 -1.7 42
2018-04-19 15:00:00 23.8 -- -- 21 Norte 0 1015.5 -1.4 41
2018-04-19 14:00:00 22.9 -- -- 24 Norte 0 1016.1 -1 43
2018-04-19 13:00:00 21.8 -- -- 26 Norte 0 1016.7 -0.2 44
2018-04-19 12:00:00 20.8 -- -- 22 Norte 0 1016.9 -0.3 46
2018-04-19 11:00:00 19.4 -- -- 19 Norte 0 1017.1 0.1 52
2018-04-19 10:00:00 16.6 -- -- 18 Norte 0 1016.9 -0.2 65
2018-04-19 09:00:00 12.9 -- -- 8 Norte 0 1017.2 -0.1 89
2018-04-19 08:00:00 10.1 -- -- 6 Norte 0 1017 -0.5 93
2018-04-19 07:00:00 11.2 -- -- 11 Norte 0 1017.1 -1 88
2018-04-19 06:00:00 12.1 -- -- 12 Norte 0 1017.3 -1.3 87
2018-04-19 05:00:00 11.5 -- -- 6 Norte 0 1017.5 -1.7 94
2018-04-19 04:00:00 11.4 -- -- 5 Norte 0 1018.1 -1.4 93
2018-04-19 03:00:00 12.4 -- -- 10 Norte 0 1018.6 -1 93
2018-04-19 02:00:00 12.9 -- -- 4 Norte 0 1019.2 -0.1 91
2018-04-19 01:00:00 13.8 -- -- 5 Norte 0 1019.5 1.1 85
2018-04-19 00:00:00 14.5 -- -- 5 Norte 0 1019.6 1.5 76
2018-04-18 23:00:00 14.9 -- -- 3 Norte 0 1019.3 1.3 71
2018-04-18 22:00:00 16.7 -- -- 9 Norte 0 1018.4 0.4 61
2018-04-18 21:00:00 18.9 -- -- 10 Norte 0 1018.1 0 56
2018-04-18 20:00:00 20.6 -- -- 23 Norte 0 1018 -0.6 51
2018-04-18 19:00:00 22.3 -- -- 25 Norte 0 1018 -1.1 41
2018-04-18 18:00:00 22.9 -- -- 28 Norte 0 1018.1 -1.5 40
2018-04-18 17:00:00 23.7 -- -- 22 Norte 0 1018.6 -1.4 40
2018-04-18 16:00:00 24.1 -- -- 22 Norte 0 1019.1 -1.1 40
2018-04-18 15:00:00 23.8 -- -- 21 Norte 0 1019.6 -0.5 40
2018-04-18 14:00:00 24.1 -- -- 19 Norte 0 1020 0 41
2018-04-18 13:00:00 22.6 -- -- 22 Norte 0 1020.2 0.5 44
2018-04-18 12:00:00 21 -- -- 16 Norte 0 1020.1 0.4 49
2018-04-18 11:00:00 19.2 -- -- 13 Norte 0 1020 0.8 59
2018-04-18 10:00:00 15.3 -- -- 9 Norte 0 1019.7 0.4 83
2018-04-18 09:00:00 12.3 -- -- 11 Norte 0 1019.7 0.4 92
2018-04-18 08:00:00 11 -- -- 10 Norte 0 1019.2 -0.6 91
2018-04-18 07:00:00 10.6 -- -- 8 Norte 0 1019.3 -0.8 92
2018-04-18 06:00:00 10.9 -- -- 9 Norte 0 1019.3 -1.3 92
2018-04-18 05:00:00 10.9 -- -- 8 Norte 0 1019.8 -0.6 93
2018-04-18 04:00:00 11.2 -- -- 5 Norte 0 1020.1 -0.1 85
2018-04-18 03:00:00 12 -- -- 15 Norte 0 1020.6 0.4 86
2018-04-18 02:00:00 12.6 -- -- 10 Norte 0 1020.4 0.1 83
2018-04-18 01:00:00 12.8 -- -- 6 Norte 0 1020.2 0.3 80
2018-04-18 00:00:00 13.9 -- -- 7 Norte 0 1020.2 0.5 77
2018-04-17 23:00:00 14.5 -- -- 4 Norte 0 1020.3 0.5 79
2018-04-17 22:00:00 16.3 -- -- 8 Norte 0 1019.9 -0.2 64
2018-04-17 21:00:00 19.2 -- -- 6 Norte 0 1019.7 -0.7 47
2018-04-17 20:00:00 22 -- -- 8 Norte 0 1019.8 -1 36
2018-04-17 19:00:00 22.5 -- -- 12 Norte 0 1020.1 -1.3 39
2018-04-17 18:00:00 21.7 -- -- 15 Norte 0 1020.4 -1.4 37
2018-04-17 17:00:00 22.7 -- -- 19 Norte 0 1020.8 -1.4 36
2018-04-17 16:00:00 22.6 -- -- 22 Norte 0 1021.4 -1.1 40
2018-04-17 15:00:00 22.3 -- -- 16 Norte 0 1021.8 -1 46
2018-04-17 14:00:00 20.1 -- -- 16 Norte 0 1022.2 -0.6 51
2018-04-17 13:00:00 20.1 -- -- 14 Norte 0 1022.5 -0.2 52
2018-04-17 12:00:00 18 -- -- 12 Norte 0 1022.8 0.6 59
2018-04-17 11:00:00 16.1 -- -- 19 Norte 0 1022.8 1.3 71
2018-04-17 10:00:00 13.7 -- -- 22 Norte 0 1022.7 1.5 80
2018-04-17 09:00:00 11.8 -- -- 19 Norte 0 1022.2 1.2 92
2018-04-17 08:00:00 11 -- -- 20 Norte 0 1021.5 0.5 94
2018-04-17 07:00:00 11.1 -- -- 21 Norte 0 1021.2 0.1 92
2018-04-17 06:00:00 11.2 -- -- 21 Norte 0 1021 -0.5 91
2018-04-17 05:00:00 11.4 -- -- 17 Norte 0 1021 -0.5 91
2018-04-17 04:00:00 11.5 -- -- 15 Norte 0 1021.1 -0.2 89
2018-04-17 03:00:00 11.9 -- -- 14 Norte 0 1021.5 0.1 90
2018-04-17 02:00:00 12.2 -- -- 13 Norte 0 1021.5 0.3 92
2018-04-17 01:00:00 12.1 -- -- 9 Norte 0 1021.3 0.9 92
2018-04-17 00:00:00 12.5 -- -- 12 Norte 0 1021.4 1.3 87
2018-04-16 23:00:00 13.2 -- -- 22 Norte 0 1021.2 1.1 86
2018-04-16 22:00:00 13.8 -- -- 21 Norte 0 1020.4 0.4 83
2018-04-16 21:00:00 14.4 -- -- 30 Norte 0 1020.1 0.2 77
2018-04-16 20:00:00 15.6 -- -- 28 Norte 0 1020.1 0 68
2018-04-16 19:00:00 16.8 -- -- 28 Norte 0 1020 -0.6 63
2018-04-16 18:00:00 17.6 -- -- 30 Norte 0 1019.9 -0.9 63
2018-04-16 17:00:00 17.5 -- -- 32 Norte 0 1020.1 -1.2 64
2018-04-16 16:00:00 17.5 -- -- 26 Norte 0 1020.6 -1.1 63
2018-04-16 15:00:00 17.1 -- -- 22 Norte 0 1020.8 -1.1 64
2018-04-16 14:00:00 16.8 -- -- 15 Norte 0 1021.3 -0.3 56
2018-04-16 13:00:00 15.8 -- -- 15 Norte 0 1021.7 0.5 70
2018-04-16 12:00:00 13.9 -- -- 12 Norte 0 1021.9 1.3 82
2018-04-16 11:00:00 11.8 -- -- 13 Norte 0 1021.6 1.6 97
2018-04-16 10:00:00 11.5 -- -- 14 Norte 0.1 1021.2 1.6 99
2018-04-16 09:00:00 9.8 -- -- 6 Norte 0 1020.6 1.3 99
2018-04-16 08:00:00 7.7 -- -- 3 Norte 0 1020 0.7 99
2018-04-16 07:00:00 8.1 -- -- 7 Norte 0 1019.6 0.6 98
2018-04-16 06:00:00 8.5 -- -- 4 Norte 0 1019.3 0 98
2018-04-16 05:00:00 9.1 -- -- 4 Norte 0 1019.3 -0.1 98
2018-04-16 04:00:00 9.5 -- -- 6 Norte 0 1019 -0.2 98
2018-04-16 03:00:00 10.2 -- -- 9 Norte 0 1019.3 0.4 98
2018-04-16 02:00:00 10.7 -- -- 8 Norte 0 1019.4 0.6 98
2018-04-16 01:00:00 11.6 -- -- 12 Norte 0.1 1019.2 0.9 98
2018-04-16 00:00:00 12.5 -- -- 15 Norte 1.1 1018.9 1.2 98
2018-04-15 23:00:00 12.8 -- -- 19 Norte 0.1 1018.8 1.1 98
2018-04-15 22:00:00 12.5 -- -- 28 Norte 2.1 1018.3 0.7 98
2018-04-15 21:00:00 15.7 -- -- 26 Norte 0 1017.7 0.2 97
2018-04-15 20:00:00 15.8 -- -- 27 Norte 0 1017.7 -0.4 96
2018-04-15 19:00:00 16 -- -- 30 Norte 0 1017.6 -1.2 96
2018-04-15 18:00:00 17.3 -- -- 33 Norte 0 1017.5 -1.8 98
2018-04-15 17:00:00 16 -- -- 28 Norte 0 1018.1 -1.6 99
2018-04-15 16:00:00 15.5 -- -- 24 Norte 0.1 1018.8 -1.4 99
2018-04-15 15:00:00 15.3 -- -- 22 Norte 0.5 1019.3 -0.9 99
2018-04-15 14:00:00 15.2 -- -- 21 Norte 0 1019.7 -0.3 99
2018-04-15 13:00:00 14.7 -- -- 15 Norte 0 1020.2 0.3 99
2018-04-15 12:00:00 14.9 -- -- 14 Norte 0 1020.2 0.5 97
2018-04-15 11:00:00 14.6 -- -- 13 Norte 0 1020 0.6 94
2018-04-15 10:00:00 14 -- -- 8 Norte 0 1019.9 0.7 92
2018-04-15 09:00:00 12.4 -- -- 5 Norte 0 1019.7 0.3 95
2018-04-15 08:00:00 12 -- -- 4 Norte 0 1019.4 -0.3 95
2018-04-15 07:00:00 11.7 -- -- 4 Norte 0 1019.2 -0.9 95
2018-04-15 06:00:00 11.6 -- -- 3 Norte 0 1019.4 -1.2 94
2018-04-15 05:00:00 11.5 -- -- 2 Norte 0 1019.7 -0.6 92
2018-04-15 04:00:00 11.9 -- -- 3 Norte 0 1020.1 -0.3 90
2018-04-15 03:00:00 11.5 -- -- 2 Norte 0 1020.6 0.3 88
2018-04-15 02:00:00 11.8 -- -- 7 Norte 0 1020.3 0.5 83
2018-04-15 01:00:00 12.5 -- -- 16 Norte 0 1020.4 1.3 82
2018-04-15 00:00:00 13.6 -- -- 18 Norte 0 1020.3 2.2 76
2018-04-14 23:00:00 13.7 -- -- 10 Norte 0 1019.8 1.7 81
2018-04-14 22:00:00 14.1 -- -- 8 Norte 0 1019.1 1.5 82
2018-04-14 21:00:00 15.2 -- -- 22 Norte 0 1018.1 0.3 75
2018-04-14 20:00:00 16.1 -- -- 25 Norte 0 1018.1 0.2 70
2018-04-14 19:00:00 17.5 -- -- 25 Norte 0 1017.6 -0.4 66
2018-04-14 18:00:00 18.5 -- -- 30 Norte 0 1017.8 -0.7 63
2018-04-14 17:00:00 18.2 -- -- 30 Norte 0 1017.9 -0.5 65
2018-04-14 16:00:00 18 -- -- 26 Norte 0 1018 -0.4 62
2018-04-14 15:00:00 17.3 -- -- 27 Norte 0 1018.5 0.4 62
2018-04-14 14:00:00 18.5 -- -- 23 Norte 0 1018.4 0.6 58
2018-04-14 13:00:00 17 -- -- 22 Norte 0 1018.4 1.4 63
2018-04-14 12:00:00 15.6 -- -- 22 Norte 0 1018.1 1.7 70
2018-04-14 11:00:00 14.3 -- -- 22 Norte 0 1017.8 2.2 79
2018-04-14 10:00:00 12.3 -- -- 45 Norte 0 1017 2.1 89
2018-04-14 09:00:00 11 -- -- 19 Norte 0 1016.4 1.6 95
2018-04-14 08:00:00 10.4 -- -- 22 Norte 0 1015.6 1.2 94
2018-04-14 07:00:00 10.8 -- -- 23 Norte 0 1014.9 0.6 93
2018-04-14 06:00:00 11 -- -- 19 Norte 0 1014.8 0.6 92
2018-04-14 05:00:00 11.1 -- -- 21 Norte 0 1014.4 0.5 90
2018-04-14 04:00:00 11.6 -- -- 22 Norte 0 1014.3 0.7 87
2018-04-14 03:00:00 11.9 -- -- 22 Norte 0 1014.2 1.1 86
2018-04-14 02:00:00 12 -- -- 15 Norte 0 1013.9 1.6 85
2018-04-14 01:00:00 12.7 -- -- 18 Norte 0 1013.6 2.9 83
2018-04-14 00:00:00 12.2 -- -- 9 Norte 0 1013.1 3.5 81
2018-04-13 23:00:00 13.2 -- -- 15 Norte 0 1012.3 3.6 74
2018-04-13 22:00:00 14.1 -- -- 22 Norte 0 1010.7 2.6 67
2018-04-13 21:00:00 15.6 -- -- 16 Norte 0 1009.6 2.2 54
2018-04-13 20:00:00 17.2 -- -- 17 Norte 0 1008.7 1.4 50
2018-04-13 19:00:00 18 -- -- 18 Norte 0 1008.1 1 50
2018-04-13 18:00:00 18 -- -- 20 Norte 0 1007.4 0.6 50
2018-04-13 17:00:00 17.1 -- -- 20 Norte 0 1007.3 1 55
2018-04-13 16:00:00 15.8 -- -- 28 Norte 0 1007.1 1.3 58
2018-04-13 15:00:00 14.9 -- -- 21 Norte 0 1006.8 2 61
2018-04-13 14:00:00 14.7 -- -- 26 Norte 0 1006.3 2.5 62
2018-04-13 13:00:00 14.3 -- -- 27 Norte 0 1005.8 3.2 64
2018-04-13 12:00:00 13.3 -- -- 19 Norte 0 1004.8 3.2 73
2018-04-13 11:00:00 12.2 -- -- 22 Norte 0 1003.8 3.5 88
2018-04-13 10:00:00 10.6 -- -- 24 Norte 0 1002.6 3.3 98
2018-04-13 09:00:00 9.9 -- -- 23 Norte 0.7 1001.6 0.8 98
2018-04-13 08:00:00 10 -- -- 19 Norte 1.6 1000.3 -1.5 98
2018-04-13 07:00:00 10.8 -- -- 26 Norte 5.3 999.3 -3.1 98
2018-04-13 06:00:00 10.5 -- -- 36 Norte 4 1000.8 -2.7 98
2018-04-13 05:00:00 10.7 -- -- 36 Norte 0.2 1001.8 -2.5 92
2018-04-13 04:00:00 10.6 -- -- 22 Norte 0 1002.4 -2.1 96
2018-04-13 03:00:00 8.9 -- -- 10 Norte 0 1003.5 -0.7 94
2018-04-13 02:00:00 9.1 -- -- 14 Norte 0 1004.3 0.1 91
2018-04-13 01:00:00 9.9 -- -- 19 Norte 0 1004.5 0.8 90
2018-04-13 00:00:00 9.4 -- -- 12 Norte 0 1004.2 1.5 86
2018-04-12 23:00:00 10.1 -- -- 13 Norte 0.1 1004.2 2.2 80
2018-04-12 22:00:00 11.8 -- -- 23 Norte 0 1003.7 2.2 74
2018-04-12 21:00:00 13.3 -- -- 26 Norte 0 1002.7 1.3 63
2018-04-12 20:00:00 15.3 -- -- 37 Norte 0 1002 0.6 54
2018-04-12 19:00:00 16.4 -- -- 31 Norte 0 1001.5 -0.5 54
2018-04-12 18:00:00 16.1 -- -- 42 Norte 0 1001.4 -0.8 58
2018-04-12 17:00:00 14.7 -- -- 28 Norte 0.3 1001.4 -1.8 92
2018-04-12 16:00:00 13.6 -- -- 30 Norte 0.3 1002 -2 99
2018-04-12 15:00:00 12.3 -- -- 17 Norte 1.5 1002.2 -2.2 99
2018-04-12 14:00:00 13.1 -- -- 54 Norte 4.6 1003.2 -2.7 99
2018-04-12 13:00:00 13.5 -- -- 42 Norte 5 1004 -2.4 98
2018-04-12 12:00:00 13.5 -- -- 37 Norte 0.4 1004.4 -3 98
2018-04-12 11:00:00 12.9 -- -- 31 Norte 0.5 1005.9 -1.4 98
2018-04-12 10:00:00 12.7 -- -- 13 Norte 1.9 1006.4 -1.6 98
2018-04-12 09:00:00 11.2 -- -- 3 Norte 0.1 1007.4 -1.3 96
2018-04-12 08:00:00 10.5 -- -- 8 Norte 0 1007.3 -1.7 94
2018-04-12 07:00:00 9.8 -- -- 5 Norte 0 1008 -1.4 93
2018-04-12 06:00:00 10.3 -- -- 8 Norte 0 1008.7 -1.6 92
2018-04-12 05:00:00 10.6 -- -- 15 Norte 0 1009 -1.8 89
2018-04-12 04:00:00 11.6 -- -- 19 Norte 0 1009.4 -1.3 85
2018-04-12 03:00:00 12 -- -- 19 Norte 0 1010.3 -0.9 80
2018-04-12 02:00:00 12.3 -- -- 17 Norte 0 1010.8 0 79
2018-04-12 01:00:00 11.8 -- -- 16 Norte 0 1010.7 0.5 76
2018-04-12 00:00:00 11 -- -- 13 Norte 0 1011.2 1.9 70
2018-04-11 23:00:00 11.7 -- -- 18 Norte 0 1010.8 1.9 64
2018-04-11 22:00:00 12.9 -- -- 25 Norte 0 1010.2 1.8 56
2018-04-11 21:00:00 14 -- -- 30 Norte 0 1009.3 1.1 50
2018-04-11 20:00:00 15.7 -- -- 33 Norte 0 1008.9 0.9 44
2018-04-11 19:00:00 17.3 -- -- 31 Norte 0 1008.4 0 42
2018-04-11 18:00:00 17 -- -- 34 Norte 0 1008.2 -0.3 44
2018-04-11 17:00:00 17.2 -- -- 31 Norte 0 1008 -0.8 42
2018-04-11 16:00:00 18.2 -- -- 31 Norte 0 1008.4 -0.5 41
2018-04-11 15:00:00 17 -- -- 32 Norte 0 1008.5 -0.2 45
2018-04-11 14:00:00 15.9 -- -- 33 Norte 0 1008.8 0.7 51
2018-04-11 13:00:00 14.8 -- -- 38 Norte 0 1008.9 1 53
2018-04-11 12:00:00 14.1 -- -- 38 Norte 0 1008.7 1.4 56
2018-04-11 11:00:00 13.3 -- -- 32 Norte 0 1008.1 1.8 60
2018-04-11 10:00:00 11.8 -- -- 31 Norte 0 1007.9 2.5 71
2018-04-11 09:00:00 10.2 -- -- 24 Norte 0 1007.3 2.6 80
2018-04-11 08:00:00 9.5 -- -- 31 Norte 0 1006.3 2.2 81
2018-04-11 07:00:00 9.6 -- -- 25 Norte 0 1005.4 1.6 80
2018-04-11 06:00:00 9.6 -- -- 23 Norte 0 1004.7 0.4 78
2018-04-11 05:00:00 9.9 -- -- 26 Norte 0 1004.1 -0.4 77
2018-04-11 04:00:00 9.1 -- -- 24 Norte 0 1003.8 -0.8 82
2018-04-11 03:00:00 9.4 -- -- 27 Norte 0 1004.3 -0.1 79
2018-04-11 02:00:00 9.5 -- -- 27 Norte 0 1004.5 0.4 76
2018-04-11 01:00:00 10.2 -- -- 37 Norte 0 1004.6 1.2 71
2018-04-11 00:00:00 10.2 -- -- 37 Norte 0 1004.4 2.1 71
2018-04-10 23:00:00 10.9 -- -- 28 Norte 0 1004.1 2.3 70
2018-04-10 22:00:00 10.9 -- -- 36 Norte 0 1003.4 1.8 66
2018-04-10 21:00:00 11.8 -- -- 39 Norte 0 1002.3 1.1 68
2018-04-10 20:00:00 12.8 -- -- 38 Norte 0 1001.8 1.2 73
2018-04-10 19:00:00 12.9 -- -- 46 Norte 0 1001.6 0.1 73
2018-04-10 18:00:00 14.5 -- -- 42 Norte 0.1 1001.2 -1 76
2018-04-10 17:00:00 15.1 -- -- 45 Norte 0.2 1000.6 -2.7 88
2018-04-10 16:00:00 14.3 -- -- 30 Norte 1.6 1001.5 -2.9 99
2018-04-10 15:00:00 14.6 -- -- 35 Norte 0.6 1002.2 -3.5 99
2018-04-10 14:00:00 14.8 -- -- 44 Norte 0.4 1003.3 -3.7 99
2018-04-10 13:00:00 14.2 -- -- 61 Norte 3.3 1004.4 -3.7 99
2018-04-10 12:00:00 12.5 -- -- 50 Norte 1 1005.7 -3.2 99
2018-04-10 11:00:00 -- -- -- 46 Norte 0 1007 -3 99
2018-04-10 10:00:00 11.4 -- -- 40 Norte 0.5 1008.1 -2.5 99
2018-04-10 09:00:00 11.9 -- -- 28 Norte 1.9 1008.9 -2.3 98
2018-04-10 08:00:00 11.4 -- -- 22 Norte 0.4 1010 -1.7 94
2018-04-10 07:00:00 11 -- -- 19 Norte 0 1010.6 -2 93
2018-04-10 06:00:00 9.9 -- -- 14 Norte 0 1011.2 -2.2 94
2018-04-10 05:00:00 8.5 -- -- 12 Norte 0 1011.7 -2.2 91
2018-04-10 04:00:00 9.2 -- -- 13 Norte 0 1012.6 -1.3 87
2018-04-10 03:00:00 9.9 -- -- 15 Norte 0 1013.4 -0.9 83
2018-04-10 02:00:00 10 -- -- 15 Norte 0 1013.9 -0.5 81
2018-04-10 01:00:00 10.5 -- -- 12 Norte 0 1013.9 0 80
2018-04-10 00:00:00 10.6 -- -- 9 Norte 0 1014.3 0.8 77
2018-04-09 23:00:00 11.8 -- -- 21 Norte 0 1014.4 1.1 71
2018-04-09 22:00:00 12.5 -- -- 26 Norte 0 1013.9 0.6 68
2018-04-09 21:00:00 13 -- -- 29 Norte 0 1013.5 0.3 65
2018-04-09 20:00:00 14.5 -- -- 30 Norte 0 1013.3 0.1 60
2018-04-09 19:00:00 14.9 -- -- 30 Norte 0 1013.3 -0.3 57
2018-04-09 18:00:00 16.7 -- -- 32 Norte 0 1013.2 -0.2 53
2018-04-09 17:00:00 17.5 -- -- 36 Norte 0 1013.2 -0.6 53
2018-04-09 16:00:00 15.9 -- -- 31 Norte 0 1013.6 -0.1 52
2018-04-09 15:00:00 14.9 -- -- 30 Norte 0 1013.4 0.3 53
2018-04-09 14:00:00 15.2 -- -- 32 Norte 0 1013.8 1 52
2018-04-09 13:00:00 15 -- -- 24 Norte 0 1013.7 1 54
2018-04-09 12:00:00 13.8 -- -- 21 Norte 0 1013.1 0.4 58
2018-04-09 11:00:00 12.2 -- -- 19 Norte 0 1012.8 0.6 67
2018-04-09 10:00:00 10.4 -- -- 17 Norte 0 1012.7 0.5 79
2018-04-09 09:00:00 8.1 -- -- 10 Norte 0 1012.7 0.3 91
2018-04-09 08:00:00 6.8 -- -- 16 Norte 0 1012.2 0.4 89
2018-04-09 07:00:00 7 -- -- 13 Norte 0 1012.2 -0.1 88
2018-04-09 06:00:00 7.8 -- -- 15 Norte 0 1012.4 -0.5 86
2018-04-09 05:00:00 8.2 -- -- 18 Norte 0 1011.8 -1.2 83
2018-04-09 04:00:00 8.5 -- -- 20 Norte 0 1012.3 -0.7 83
2018-04-09 03:00:00 9.2 -- -- 24 Norte 0 1012.9 -0.3 86
2018-04-09 02:00:00 9.3 -- -- 20 Norte 0 1013 0.1 88
2018-04-09 01:00:00 9.7 -- -- 21 Norte 0 1013 0.8 86
2018-04-09 00:00:00 10.4 -- -- 24 Norte 0 1013.2 1 89
2018-04-08 23:00:00 10.5 -- -- 17 Norte 0 1012.9 1.6 93
2018-04-08 22:00:00 10.9 -- -- 31 Norte 0.5 1012.2 0.9 92
2018-04-08 21:00:00 11.1 -- -- 46 Norte 0.4 1012.2 0.6 84
2018-04-08 20:00:00 14.9 -- -- 45 Norte 0 1011.3 -0.8 65
2018-04-08 19:00:00 15.9 -- -- 44 Norte 0 1011.3 -1.7 65
2018-04-08 18:00:00 17.3 -- -- 51 Norte 0 1011.6 -2.3 62
2018-04-08 17:00:00 18.5 -- -- 44 Norte 0 1012.1 -2.4 61
2018-04-08 16:00:00 17.2 -- -- 41 Norte 0 1013 -2.1 66
2018-04-08 15:00:00 16.3 -- -- 40 Norte 0 1013.9 -1.2 65
2018-04-08 14:00:00 17.1 -- -- 31 Norte 0 1014.5 -0.5 65
2018-04-08 13:00:00 16.1 -- -- 28 Norte 0 1015.1 0.7 63
2018-04-08 12:00:00 15.4 -- -- 19 Norte 0 1015.1 1.3 64
2018-04-08 11:00:00 15 -- -- 22 Norte 0 1015 2.2 71
2018-04-08 10:00:00 12.9 -- -- 16 Norte 0 1014.4 2.6 89
2018-04-08 09:00:00 10 -- -- 14 Norte 0 1013.8 2.6 99
2018-04-08 08:00:00 8.2 -- -- 5 Norte 0 1012.8 2 99
2018-04-08 07:00:00 8.9 -- -- 6 Norte 0 1011.8 1.2 98
2018-04-08 06:00:00 9.2 -- -- 7 Norte 0.1 1011.2 1 98
2018-04-08 05:00:00 10.2 -- -- 15 Norte 0 1010.8 0.5 98
2018-04-08 04:00:00 9.3 -- -- 8 Norte 0 1010.6 0.3 98
2018-04-08 03:00:00 9.3 -- -- 6 Norte 0 1010.2 0.1 97
2018-04-08 02:00:00 10 -- -- 12 Norte 0 1010.3 0.5 96
2018-04-08 01:00:00 10.2 -- -- 8 Norte 0 1010.3 1.4 96
2018-04-08 00:00:00 11.4 -- -- 12 Norte 0 1010.1 1.6 94
2018-04-07 23:00:00 12 -- -- 10 Norte 0 1009.8 1.7 92
2018-04-07 22:00:00 12.3 -- -- 7 Norte 0.1 1008.9 1 89
2018-04-07 21:00:00 13.2 -- -- 26 Norte 0.4 1008.5 0.7 83
2018-04-07 20:00:00 14.7 -- -- 35 Norte 0 1008.1 0.3 70
2018-04-07 19:00:00 15.4 -- -- 42 Norte 0 1007.9 -0.3 70
2018-04-07 18:00:00 16.8 -- -- 43 Norte 0 1007.8 -1 67
2018-04-07 17:00:00 17.1 -- -- 43 Norte 0 1007.8 -2 65
2018-04-07 16:00:00 16.4 -- -- 40 Norte 0 1008.2 -1.5 71
2018-04-07 15:00:00 15.8 -- -- 17 Norte 0.3 1008.8 -0.5 79
2018-04-07 14:00:00 11.5 -- -- 32 Norte 3.8 1009.8 0.6 92
2018-04-07 13:00:00 -- -- -- 26 Norte 0 1009.7 0.7 74
2018-04-07 12:00:00 -- -- -- 23 Norte 0 1009.3 0.4 72
2018-04-07 11:00:00 -- -- -- 19 Norte 0 1009.2 1 80
2018-04-07 10:00:00 -- -- -- 11 Norte 0 1009 0.7 98
2018-04-07 09:00:00 -- -- -- 3 Norte 0 1008.9 0.8 98
2018-04-07 08:00:00 -- -- -- 5 Norte 0 1008.2 -0.1 98
2018-04-07 07:00:00 -- -- -- 5 Norte 0.2 1008.3 0.7 98
2018-04-07 06:00:00 -- -- -- 8 Norte 0.1 1008.1 -0.5 98
2018-04-07 05:00:00 -- -- -- 2 Norte 0.1 1008.3 0.3 98
2018-04-07 04:00:00 -- -- -- 6 Norte 0 1007.6 -1.8 98
2018-04-07 03:00:00 -- -- -- 23 Norte 0.2 1008.6 -0.7 98
2018-04-07 02:00:00 -- -- -- 17 Norte 2.6 1008 -1.1 98
2018-04-07 01:00:00 -- -- -- 14 Norte 2.4 1009.4 1.2 98
2018-04-07 00:00:00 -- -- -- 10 Norte 0.9 1009.3 1.6 98
2018-04-06 23:00:00 13.7 -- -- 8 Norte 1.7 1009.1 1.9 98
2018-04-06 22:00:00 13.8 -- -- 7 Norte 5.9 1008.2 0.9 98
2018-04-06 21:00:00 14.7 -- -- 14 Norte 1 1007.7 0.4 96
2018-04-06 20:00:00 15.6 -- -- 33 Norte 0 1007.2 -0.4 88
2018-04-06 19:00:00 15.8 -- -- 28 Norte 0 1007.3 -0.7 85
2018-04-06 18:00:00 18.5 -- -- 37 Norte 0 1007.3 -1.1 72
2018-04-06 17:00:00 19.1 -- -- 39 Norte 0 1007.6 -1.2 67
2018-04-06 16:00:00 19.1 -- -- 40 Norte 0 1008 -1.1 63
2018-04-06 15:00:00 19.4 -- -- 29 Norte 0 1008.4 -1.1 58
2018-04-06 14:00:00 18.9 -- -- 21 Norte 0 1008.8 -0.9 55
2018-04-06 13:00:00 18.5 -- -- 20 Norte 0 1009.1 -0.7 55
2018-04-06 12:00:00 17.9 -- -- 13 Norte 0 1009.5 -0.2 59
2018-04-06 11:00:00 16 -- -- 10 Norte 0 1009.7 0.2 66
2018-04-06 10:00:00 13.1 -- -- 13 Norte 0 1009.8 0.5 81
2018-04-06 09:00:00 11 -- -- 13 Norte 0 1009.7 -0.2 92
2018-04-06 08:00:00 10 -- -- 11 Norte 0 1009.5 -0.5 94
2018-04-06 07:00:00 10.8 -- -- 14 Norte 0 1009.3 -1.3 91
2018-04-06 06:00:00 11 -- -- 14 Norte 0 1009.9 -1 89
2018-04-06 05:00:00 11.4 -- -- 21 Norte 0 1010 -1.5 86
2018-04-06 04:00:00 12.1 -- -- 18 Norte 0 1010.6 -1.1 82
2018-04-06 03:00:00 13 -- -- 19 Norte 0 1010.9 -0.6 76
2018-04-06 02:00:00 13.3 -- -- 10 Norte 0 1011.5 -0.4 74
2018-04-06 01:00:00 13.5 -- -- 10 Norte 0 1011.7 0.1 73
2018-04-06 00:00:00 13.9 -- -- 3 Norte 0 1011.5 0.4 68
2018-04-05 23:00:00 15 -- -- 7 Norte 0 1011.9 0.8 56
2018-04-05 22:00:00 16.7 -- -- 10 Norte 0 1011.6 0.2 50
2018-04-05 21:00:00 18.4 -- -- 9 Norte 0 1011.1 -0.8 44
2018-04-05 20:00:00 20.7 -- -- 11 Norte 0 1011.1 -1.5 39
2018-04-05 19:00:00 21.5 -- -- 14 Norte 0 1011.4 -2.2 37
2018-04-05 18:00:00 22.4 -- -- 13 Norte 0 1011.9 -2.4 35
2018-04-05 17:00:00 21.9 -- -- 14 Norte 0 1012.6 -2.5 37
2018-04-05 16:00:00 21.3 -- -- 17 Norte 0 1013.6 -2.3 38
2018-04-05 15:00:00 22.2 -- -- 17 Norte 0 1014.3 -2 39
2018-04-05 14:00:00 21.4 -- -- 14 Norte 0 1015.1 -1.5 41
2018-04-05 13:00:00 20.5 -- -- 17 Norte 0 1015.9 -0.9 50
2018-04-05 12:00:00 18.6 -- -- 22 Norte 0 1016.3 -0.2 57
2018-04-05 11:00:00 16.7 -- -- 18 Norte 0 1016.6 0.1 65
2018-04-05 10:00:00 13.1 -- -- 13 Norte 0 1016.8 0.4 85
2018-04-05 09:00:00 10.5 -- -- 19 Norte 0 1016.5 -0.2 95
2018-04-05 08:00:00 10.2 -- -- 20 Norte 0 1016.5 -0.8 96
2018-04-05 07:00:00 10.3 -- -- 18 Norte 0 1016.4 -1.5 94
2018-04-05 06:00:00 11.1 -- -- 14 Norte 0 1016.7 -1.6 91
2018-04-05 05:00:00 11.4 -- -- 15 Norte 0 1017.3 -1.3 89
2018-04-05 04:00:00 11.7 -- -- 18 Norte 0 1017.9 -1.1 85
2018-04-05 03:00:00 12.1 -- -- 19 Norte 0 1018.3 -1 80
2018-04-05 02:00:00 12.5 -- -- 16 Norte 0 1018.6 -0.5 76
2018-04-05 01:00:00 13.3 -- -- 18 Norte 0 1019 0.6 71
2018-04-05 00:00:00 13.9 -- -- 17 Norte 0 1019.3 1.4 67
2018-04-04 23:00:00 15 -- -- 18 Norte 0 1019.1 1.4 60
2018-04-04 22:00:00 16 -- -- 18 Norte 0 1018.4 0.9 53
2018-04-04 21:00:00 17.3 -- -- 20 Norte 0 1017.9 0.4 47
2018-04-04 20:00:00 19.2 -- -- 21 Norte 0 1017.7 0.1 50
2018-04-04 19:00:00 19.1 -- -- 36 Norte 0 1017.5 -0.5 64
2018-04-04 18:00:00 19.4 -- -- 37 Norte 0 1017.5 -0.9 64
2018-04-04 17:00:00 18.5 -- -- 37 Norte 0 1017.6 -1 67
2018-04-04 16:00:00 19.6 -- -- 36 Norte 0 1018 -0.6 65
2018-04-04 15:00:00 19.2 -- -- 40 Norte 0 1018.4 -0.1 62
2018-04-04 14:00:00 18.7 -- -- 29 Norte 0 1018.6 0.5 64
2018-04-04 13:00:00 19.1 -- -- 24 Norte 0 1018.6 1.4 65
2018-04-04 12:00:00 17.8 -- -- 20 Norte 0 1018.5 1.9 70
2018-04-04 11:00:00 17.2 -- -- 18 Norte 0 1018.1 2.4 73
2018-04-04 10:00:00 14 -- -- 14 Norte 0 1017.2 2.1 97
2018-04-04 09:00:00 10.1 -- -- 5 Norte 0 1016.6 1.7 98
2018-04-04 08:00:00 9.2 -- -- 2 Norte 0 1015.7 1.3 98
2018-04-04 07:00:00 10 -- -- 7 Norte 0 1015.1 0.9 98
2018-04-04 06:00:00 10.9 -- -- 7 Norte 0 1014.9 0.7 98
2018-04-04 05:00:00 11.6 -- -- 12 Norte 0 1014.4 0.4 97
2018-04-04 04:00:00 11.5 -- -- 9 Norte 0 1014.2 0.5 95
2018-04-04 03:00:00 12 -- -- 17 Norte 0 1014.2 0.8 93
2018-04-04 02:00:00 13.1 -- -- 20 Norte 0 1014 1.1 94
2018-04-04 01:00:00 13.8 -- -- 21 Norte 0 1013.7 1.7 93
2018-04-04 00:00:00 14.1 -- -- 22 Norte 0 1013.4 2.5 91
2018-04-03 23:00:00 14.7 -- -- 25 Norte 0 1012.9 2.2 86
2018-04-03 22:00:00 14.6 -- -- 26 Norte 0 1012 1.3 83
2018-04-03 21:00:00 15.3 -- -- 30 Norte 0 1010.9 0.3 79
2018-04-03 20:00:00 17 -- -- 40 Norte 0 1010.7 -0.2 66
2018-04-03 19:00:00 17.2 -- -- 39 Norte 0 1010.7 -0.1 71
2018-04-03 18:00:00 18.5 -- -- 40 Norte 0 1010.6 -0.6 65
2018-04-03 17:00:00 19.2 -- -- 42 Norte 0 1010.9 -0.2 67
2018-04-03 16:00:00 19.2 -- -- 42 Norte 0 1010.8 -0.8 68
2018-04-03 15:00:00 18.9 -- -- 42 Norte 0 1011.2 -0.2 70
2018-04-03 14:00:00 18.9 -- -- 37 Norte 0 1011.1 0.3 71
2018-04-03 13:00:00 18.5 -- -- 32 Norte 0 1011.6 1 73
2018-04-03 12:00:00 17.7 -- -- 22 Norte 0 1011.4 1.5 79
2018-04-03 11:00:00 16 -- -- 14 Norte 0 1010.8 1.1 96
2018-04-03 10:00:00 14.6 -- -- 4 Norte 0 1010.6 1.2 99
2018-04-03 09:00:00 12.3 -- -- 12 Norte 0 1009.9 0.5 99
2018-04-03 08:00:00 11.2 -- -- 3 Norte 0 1009.7 0 99
2018-04-03 07:00:00 11.1 -- -- 2 Norte 0 1009.4 -0.4 99
2018-04-03 06:00:00 11.2 -- -- 7 Norte 0 1009.4 -0.6 99
2018-04-03 05:00:00 12.4 -- -- 13 Norte 0 1009.7 -0.7 99
2018-04-03 04:00:00 12 -- -- 11 Norte 0 1009.8 -0.3 98
2018-04-03 03:00:00 11.9 -- -- 5 Norte 0 1010 0.1 98
2018-04-03 02:00:00 12.6 -- -- 16 Norte 0 1010.4 0.9 98
2018-04-03 01:00:00 13.4 -- -- 17 Norte 0 1010.1 1.3 97
2018-04-03 00:00:00 14.1 -- -- 20 Norte 0 1009.9 2 97
2018-04-02 23:00:00 14.5 -- -- 26 Norte 0 1009.5 2 95
2018-04-02 22:00:00 14.8 -- -- 24 Norte 0 1008.8 1.3 94
2018-04-02 21:00:00 15.1 -- -- 24 Norte 0 1007.9 0.3 92
2018-04-02 20:00:00 15.8 -- -- 19 Norte 0 1007.5 -0.3 97
2018-04-02 19:00:00 16.1 -- -- 24 Norte 0.1 1007.5 -0.3 96
2018-04-02 18:00:00 15.6 -- -- 29 Norte 0 1007.6 -0.5 95
2018-04-02 17:00:00 17 -- -- 26 Norte 0 1007.8 -0.7 85
2018-04-02 16:00:00 18.4 -- -- 28 Norte 0 1007.8 -1.2 76
2018-04-02 15:00:00 18.4 -- -- 27 Norte 0 1008.1 -0.7 74
2018-04-02 14:00:00 17.5 -- -- 24 Norte 0 1008.5 0.3 77
2018-04-02 13:00:00 17.9 -- -- 23 Norte 0 1009 1.1 73
2018-04-02 12:00:00 18 -- -- 23 Norte 0 1008.8 1.9 73
2018-04-02 11:00:00 16.5 -- -- 20 Norte 0 1008.2 1.9 82
2018-04-02 10:00:00 15.4 -- -- 15 Norte 0 1007.9 1.7 96
2018-04-02 09:00:00 14.1 -- -- 4 Norte 0 1006.9 0.6 97
2018-04-02 08:00:00 -- -- -- 8 Norte 0 1006.3 -0.2 97
2018-04-02 07:00:00 14.9 -- -- 10 Norte 0 1006.2 -1.1 97
2018-04-02 06:00:00 15 -- -- 16 Norte 0 1006.3 -1.3 97
2018-04-02 05:00:00 -- -- -- 13 Norte 0 1006.5 -1.5 95
2018-04-02 04:00:00 13.2 -- -- 17 Norte 0 1007.3 -1.3 94
2018-04-02 03:00:00 11.3 -- -- 7 Norte 0 1007.6 -0.8 95
2018-04-02 02:00:00 12 -- -- 6 Norte 0 1008 -0.6 92
2018-04-02 01:00:00 12.1 -- -- 3 Norte 0 1008.6 0.2 89
2018-04-02 00:00:00 12.7 -- -- 5 Norte 0 1008.4 0.2 82
2018-04-01 23:00:00 13.5 -- -- 8 Norte 0 1008.6 0.4 72
2018-04-01 22:00:00 14.5 -- -- 5 Norte 0 1008.4 0 60
2018-04-01 21:00:00 16 -- -- 10 Norte 0 1008.2 -0.7 56
2018-04-01 20:00:00 17.7 -- -- 15 Norte 0 1008.2 -1.2 53
2018-04-01 19:00:00 18.5 -- -- 15 Norte 0 1008.4 -1.7 50
2018-04-01 18:00:00 18.4 -- -- 12 Norte 0 1008.9 -2 47
2018-04-01 17:00:00 18.9 -- -- 15 Norte 0 1009.4 -2.3 46
2018-04-01 16:00:00 18.8 -- -- 22 Norte 0 1010.1 -2.7 46
2018-04-01 15:00:00 19 -- -- 28 Norte 0 1010.9 -2.3 43
2018-04-01 14:00:00 18.8 -- -- 24 Norte 0 1011.7 -2 44
2018-04-01 13:00:00 18.1 -- -- 17 Norte 0 1012.8 -1.1 52
2018-04-01 12:00:00 16.3 -- -- 18 Norte 0 1013.2 -0.6 63
2018-04-01 11:00:00 13.5 -- -- 18 Norte 0 1013.7 -0.2 75
2018-04-01 10:00:00 11.7 -- -- 14 Norte 0 1013.9 -0.2 85
2018-04-01 09:00:00 8.9 -- -- 12 Norte 0 1013.8 -0.7 97
2018-04-01 08:00:00 8.3 -- -- 11 Norte 0 1013.9 -1.5 97
2018-04-01 07:00:00 8.1 -- -- 8 Norte 0 1014.1 -1.9 96
2018-04-01 06:00:00 -- -- -- 8 Norte 0 1014.5 -2.2 95
2018-04-01 05:00:00 -- -- -- 4 Norte 0 1015.4 -1.7 94
2018-04-01 04:00:00 -- -- -- 10 Norte 0 1016 -1.5 92
2018-04-01 03:00:00 10 -- -- 11 Norte 0 1016.7 -1.2 89
2018-04-01 02:00:00 10 -- -- 12 Norte 0 1017.1 -1.2 88
2018-04-01 01:00:00 10.1 -- -- 8 Norte 0 1017.5 -0.4 86
2018-04-01 00:00:00 11 -- -- 10 Norte 0 1017.9 0.2 81
2018-03-31 23:00:00 11.8 -- -- 11 Norte 0 1018.3 0.7 77
2018-03-31 22:00:00 12.6 -- -- 21 Norte 0 1017.9 0.3 73
2018-03-31 21:00:00 13.2 -- -- 26 Norte 0 1017.7 0 65
2018-03-31 20:00:00 14.7 -- -- 28 Norte 0 1017.6 -0.4 61
2018-03-31 19:00:00 15.7 -- -- 31 Norte 0 1017.6 -0.6 56
2018-03-31 18:00:00 16.7 -- -- 30 Norte 0 1017.7 -0.8 53
2018-03-31 17:00:00 17 -- -- 28 Norte 0 1018 -0.8 54
2018-03-31 16:00:00 17.1 -- -- 27 Norte 0 1018.2 -0.9 53
2018-03-31 15:00:00 16.8 -- -- 27 Norte 0 1018.5 -0.8 53
2018-03-31 14:00:00 18 -- -- 21 Norte 0 1018.8 -0.2 46
2018-03-31 13:00:00 16.5 -- -- 19 Norte 0 1019.1 0.6 52
2018-03-31 12:00:00 15.8 -- -- 21 Norte 0 1019.3 1.5 58
2018-03-31 11:00:00 14 -- -- 12 Norte 0 1019 2.3 74
2018-03-31 10:00:00 11.2 -- -- 10 Norte 0 1018.5 2.5 85
2018-03-31 09:00:00 8.3 -- -- 8 Norte 0 1017.8 2.3 94
2018-03-31 08:00:00 8.9 -- -- 13 Norte 0 1016.7 1.4 92
2018-03-31 07:00:00 8.9 -- -- 9 Norte 0 1016 0.9 91
2018-03-31 06:00:00 9.6 -- -- 14 Norte 0 1015.5 0.5 90
2018-03-31 05:00:00 9.9 -- -- 14 Norte 0 1015.3 0.4 91
2018-03-31 04:00:00 9.7 -- -- 12 Norte 0 1015.1 0.7 89
2018-03-31 03:00:00 10.5 -- -- 16 Norte 0 1015 1 86
2018-03-31 02:00:00 11 -- -- 17 Norte 0 1014.9 1.5 86
2018-03-31 01:00:00 11.4 -- -- 17 Norte 0 1014.4 1.8 86
2018-03-31 00:00:00 12 -- -- 22 Norte 0 1014 2 85
2018-03-30 23:00:00 12.6 -- -- 29 Norte 0 1013.4 1.8 77
2018-03-30 22:00:00 12.8 -- -- 41 Norte 0 1012.6 1.2 73
2018-03-30 21:00:00 13.7 -- -- 44 Norte 0 1012 0.9 65
2018-03-30 20:00:00 14.8 -- -- 45 Norte 0 1011.6 0.4 54
2018-03-30 19:00:00 17.2 -- -- 44 Norte 0 1011.4 0 41
2018-03-30 18:00:00 17.6 -- -- 42 Norte 0 1011.1 -0.8 41
2018-03-30 17:00:00 18.9 -- -- 46 Norte 0 1011.2 -1.2 43
2018-03-30 16:00:00 17.3 -- -- 41 Norte 0 1011.4 -1.7 52
2018-03-30 15:00:00 18.3 -- -- 35 Norte 0 1011.9 -1.2 45
2018-03-30 14:00:00 16.7 -- -- 32 Norte 0 1012.4 -0.4 47
2018-03-30 13:00:00 15.3 -- -- 27 Norte 0.1 1013.1 0.5 65
2018-03-30 12:00:00 14.6 -- -- 18 Norte 0 1013.1 0.8 66
2018-03-30 11:00:00 13.8 -- -- 23 Norte 0 1012.8 1.3 67
2018-03-30 10:00:00 13.1 -- -- 14 Norte 0 1012.6 1.3 77
2018-03-30 09:00:00 10.6 -- -- 11 Norte 0 1012.3 0.9 86
2018-03-30 08:00:00 10.6 -- -- 9 Norte 0 1011.5 -0.5 91
2018-03-30 07:00:00 11.3 -- -- 14 Norte 0 1011.3 -1.4 92
2018-03-30 06:00:00 11.6 -- -- 13 Norte 0 1011.4 -1.9 91
2018-03-30 05:00:00 11.7 -- -- 27 Norte 0 1012 -1.3 86
2018-03-30 04:00:00 11 -- -- 23 Norte 0 1012.7 -1.2 83
2018-03-30 03:00:00 11.8 -- -- 24 Norte 0 1013.3 -0.9 80
2018-03-30 02:00:00 10.6 -- -- 19 Norte 0 1013.3 -1 77
2018-03-30 01:00:00 10 -- -- 14 Norte 0 1013.9 0 71
2018-03-30 00:00:00 10.6 -- -- 17 Norte 0 1014.2 0.9 66
2018-03-29 23:00:00 11.5 -- -- 18 Norte 0 1014.3 1.6 61
2018-03-29 22:00:00 12.4 -- -- 24 Norte 0 1013.9 1.6 57
2018-03-29 21:00:00 13.5 -- -- 28 Norte 0 1013.3 0.4 54
2018-03-29 20:00:00 15.5 -- -- 26 Norte 0 1012.7 -0.7 52
2018-03-29 19:00:00 16.7 -- -- 25 Norte 0 1012.3 -1.8 56
2018-03-29 18:00:00 17.3 -- -- 28 Norte 0 1012.9 -2.5 56
2018-03-29 17:00:00 17.2 -- -- 29 Norte 0 1013.4 -2.9 53
2018-03-29 16:00:00 17.6 -- -- 29 Norte 0 1014.1 -2.6 47
2018-03-29 15:00:00 16.8 -- -- 25 Norte 0 1015.4 -1.5 50
2018-03-29 14:00:00 16.1 -- -- 24 Norte 0 1016.3 -0.4 54
2018-03-29 13:00:00 -- -- -- 27 Norte 0 1016.7 0.1 58
2018-03-29 12:00:00 15.1 -- -- 28 Norte 0 1016.9 0.8 58
2018-03-29 11:00:00 13.9 -- -- 21 Norte 0 1016.7 1 67
2018-03-29 10:00:00 12.3 -- -- 19 Norte 0 1016.6 1.3 81
2018-03-29 09:00:00 10.9 -- -- 28 Norte 0 1016.1 0.8 89
2018-03-29 08:00:00 11.9 -- -- 25 Norte 0 1015.7 0 87
2018-03-29 07:00:00 12.8 -- -- 30 Norte 0 1015.3 -0.7 86
2018-03-29 06:00:00 13 -- -- 19 Norte 0 1015.3 -1.1 87
2018-03-29 05:00:00 12 -- -- 19 Norte 0 1015.7 -0.7 89
2018-03-29 04:00:00 12.4 -- -- 26 Norte 0 1016 -0.7 86
2018-03-29 03:00:00 12.5 -- -- 27 Norte 0 1016.4 -0.3 85
2018-03-29 02:00:00 13.2 -- -- 30 Norte 0 1016.4 -0.2 82
2018-03-29 01:00:00 13.7 -- -- 36 Norte 0 1016.7 0 78
2018-03-29 00:00:00 14.1 -- -- 28 Norte 0 1016.7 0.4 74
2018-03-28 23:00:00 15.4 -- -- 21 Norte 0 1016.6 0.6 59
2018-03-28 22:00:00 17.4 -- -- 28 Norte 0 1016.7 0.4 47
2018-03-28 21:00:00 19.1 -- -- 14 Norte 0 1016.3 -0.4 52
2018-03-28 20:00:00 20.4 -- -- 14 Norte 0 1016 -1 46
2018-03-28 19:00:00 22.4 -- -- 24 Norte 0 1016.3 -1.1 38
2018-03-28 18:00:00 23.2 -- -- 23 Norte 0 1016.7 -2 38
2018-03-28 17:00:00 23.5 -- -- 24 Norte 0 1017 -2.4 38
2018-03-28 16:00:00 25.6 -- -- 27 Norte 0 1017.4 -2.7 30
2018-03-28 15:00:00 24.7 -- -- 23 Norte 0 1018.7 -1.8 30
2018-03-28 14:00:00 24.1 -- -- 23 Norte 0 1019.4 -0.9 34
2018-03-28 13:00:00 22.3 -- -- 24 Norte 0 1020.1 0 44
2018-03-28 12:00:00 19.7 -- -- 27 Norte 0 1020.5 0.5 56
2018-03-28 11:00:00 16.7 -- -- 24 Norte 0 1020.3 0.3 64
2018-03-28 10:00:00 14.1 -- -- 24 Norte 0 1020.1 -0.1 72
2018-03-28 09:00:00 12.2 -- -- 24 Norte 0 1020 -0.4 76
2018-03-28 08:00:00 12.7 -- -- 23 Norte 0 1020 -0.8 73
2018-03-28 07:00:00 13.7 -- -- 27 Norte 0 1020.2 -1.2 69
2018-03-28 06:00:00 13.9 -- -- 22 Norte 0 1020.4 -1.9 70
2018-03-28 05:00:00 13.7 -- -- 15 Norte 0 1020.8 -2 72
2018-03-28 04:00:00 13.8 -- -- 15 Norte 0 1021.4 -1.8 70
2018-03-28 03:00:00 14.6 -- -- 14 Norte 0 1022.3 -1.2 65
2018-03-28 02:00:00 15.5 -- -- 19 Norte 0 1022.8 -0.6 57
2018-03-28 01:00:00 16.5 -- -- 21 Norte 0 1023.2 0.2 50
2018-03-28 00:00:00 17.1 -- -- 20 Norte 0 1023.5 0.9 48
2018-03-27 23:00:00 18.1 -- -- 21 Norte 0 1023.4 1 42
2018-03-27 22:00:00 19.3 -- -- 13 Norte 0 1023 0.7 39
2018-03-27 21:00:00 21.1 -- -- 21 Norte 0 1022.6 -0.2 35
2018-03-27 20:00:00 23.3 -- -- 30 Norte 0 1022.4 -0.9 32
2018-03-27 19:00:00 24.6 -- -- 28 Norte 0 1022.3 -2 30
2018-03-27 18:00:00 25.5 -- -- 28 Norte 0 1022.8 -2.5 30
2018-03-27 17:00:00 25.5 -- -- 25 Norte 0 1023.3 -2.8 32
2018-03-27 16:00:00 24.4 -- -- 22 Norte 0 1024.3 -2.5 38
2018-03-27 15:00:00 23.2 -- -- 16 Norte 0 1025.3 -1.8 42
2018-03-27 14:00:00 -- -- -- 18 Norte 0 1026.1 -0.7 50
2018-03-27 13:00:00 -- -- -- 18 Norte 0 1026.8 0.4 55
2018-03-27 12:00:00 16.1 -- -- 19 Norte 0 1027.1 1.1 65
2018-03-27 11:00:00 14.3 -- -- 23 Norte 0 1026.8 1.5 73
2018-03-27 10:00:00 11.9 -- -- 22 Norte 0 1026.4 1.2 82
2018-03-27 09:00:00 10.2 -- -- 19 Norte 0 1026 0.6 88
2018-03-27 08:00:00 9 -- -- 21 Norte 0 1025.3 -0.2 88
2018-03-27 07:00:00 10.7 -- -- 24 Norte 0 1025.2 -0.8 86
2018-03-27 06:00:00 10.5 -- -- 18 Norte 0 1025.4 -1.1 83
2018-03-27 05:00:00 11.1 -- -- 21 Norte 0 1025.5 -0.6 79
2018-03-27 04:00:00 11.6 -- -- 17 Norte 0 1026 0.3 78
2018-03-27 03:00:00 12.2 -- -- 17 Norte 0 1026.5 1.1 77
2018-03-27 02:00:00 12.4 -- -- 22 Norte 0 1026.1 0.9 73
2018-03-27 01:00:00 13.5 -- -- 24 Norte 0 1025.7 1.1 66
2018-03-27 00:00:00 13.5 -- -- 16 Norte 0 1025.4 1.6 62
2018-03-26 23:00:00 13.7 -- -- 11 Norte 0 1025.2 1.4 61
2018-03-26 22:00:00 14 -- -- 12 Norte 0 1024.6 1.2 63
2018-03-26 21:00:00 14.4 -- -- 14 Norte 0 1023.8 0.5 70
2018-03-26 20:00:00 16.3 -- -- 24 Norte 0 1023.8 0.5 59
2018-03-26 19:00:00 17.7 -- -- 27 Norte 0 1023.4 -0.1 50
2018-03-26 18:00:00 19.4 -- -- 24 Norte 0 1023.3 -0.6 44
2018-03-26 17:00:00 19 -- -- 25 Norte 0 1023.3 -0.8 44
2018-03-26 16:00:00 19.8 -- -- 25 Norte 0 1023.5 -0.5 40
2018-03-26 15:00:00 18.4 -- -- 24 Norte 0 1023.9 -0.2 42
2018-03-26 14:00:00 -- -- -- 24 Norte 0 1024.1 0.2 48
2018-03-26 13:00:00 15.7 -- -- 22 Norte 0 1024 0.8 57
2018-03-26 12:00:00 13.3 -- -- 23 Norte 0 1024.1 1.5 67
2018-03-26 11:00:00 11.5 -- -- 24 Norte 0 1023.9 2.1 76
2018-03-26 10:00:00 9.3 -- -- 23 Norte 0 1023.2 1.8 86
2018-03-26 09:00:00 8.1 -- -- 18 Norte 0 1022.6 1.9 91
2018-03-26 08:00:00 8 -- -- 13 Norte 0 1021.8 1.7 89
2018-03-26 07:00:00 8.1 -- -- 19 Norte 0 1021.4 1.1 86
2018-03-26 06:00:00 8.9 -- -- 21 Norte 0 1020.7 0.5 82
2018-03-26 05:00:00 9.3 -- -- 30 Norte 0 1020.1 0.2 77
2018-03-26 04:00:00 9.9 -- -- 33 Norte 0 1020.3 1 73
2018-03-26 03:00:00 10.2 -- -- 32 Norte 0 1020.2 1.4 68
2018-03-26 02:00:00 10.6 -- -- 30 Norte 0 1019.9 1.8 64
2018-03-26 01:00:00 11.5 -- -- 31 Norte 0 1019.3 2.2 59
2018-03-26 00:00:00 12.3 -- -- 32 Norte 0 1018.8 3 55
2018-03-25 23:00:00 13.2 -- -- 30 Norte 0 1018.1 3.2 53
2018-03-25 22:00:00 14 -- -- 21 Norte 0 1017.1 3.3 50
2018-03-25 21:00:00 15.4 -- -- 28 Norte 0 1015.8 2.7 47
2018-03-25 20:00:00 16.4 -- -- 28 Norte 0 1014.9 2.3 48
2018-03-25 19:00:00 17 -- -- 42 Norte 0 1013.8 1.5 47
2018-03-25 18:00:00 17.1 -- -- 40 Norte 0 1013.1 1.6 44
2018-03-25 17:00:00 16.9 -- -- 48 Norte 0 1012.6 1.5 47
2018-03-25 16:00:00 18.3 -- -- 39 Norte 0 1012.3 1.2 51
2018-03-25 15:00:00 17.7 -- -- 42 Norte 0 1011.5 0.1 59
2018-03-25 14:00:00 17.4 -- -- 32 Norte 0 1011.1 0.4 60
2018-03-25 13:00:00 18.6 17 Norte 34 Norte 0 1011.1 0.7 61
2018-03-25 12:00:00 16.4 19 Este 34 Norte 0 1011.4 1.8 65
2018-03-25 11:00:00 15.6 14 Norte 40 Norte 0 1010.7 1.3 67
2018-03-25 10:00:00 14.4 14 Este 31 Norte 0.1 1010.4 0.7 89
2018-03-25 09:00:00 13.1 7 Este 24 Norte 0.1 1009.6 -1.4 98
2018-03-25 08:00:00 12.9 17 Este 34 Norte 0 1009.4 -2.9 97
2018-03-25 07:00:00 12.5 19 Norte 35 Norte 0 1009.7 -4.2 96
2018-03-25 06:00:00 12 15 Norte 25 Norte 0.1 1011 -3 94
2018-03-25 05:00:00 11.9 10 Norte 23 Norte 0 1012.3 -2.6 85
2018-03-25 03:00:00 12 11 Nordeste 24 Sur 0 1014 -1.7 76
2018-03-25 01:00:00 11.8 14 Norte 27 Norte 0 1014.9 -1.1 74
2018-03-25 00:00:00 11.8 13 Este 22 Norte 0 1015.4 -0.1 70
2018-03-24 23:00:00 11.7 13 Este 23 Norte 0 1015.7 0.6 68
2018-03-24 22:00:00 11.9 14 Este 27 Sudoeste 0 1016 1.5 63
2018-03-24 21:00:00 12.3 10 Norte 32 Norte 0 1015.5 1.1 56
2018-03-24 20:00:00 13 10 Norte 30 Norte 0 1015.1 1.1 53
2018-03-24 19:00:00 14.3 13 Norte 38 Sudeste 0 1014.5 0.4 49
2018-03-24 18:00:00 16.5 18 Nordeste 40 Nordeste 0 1014.4 -0.4 43
2018-03-24 17:00:00 17 17 Norte 35 Nordeste 0 1014 -0.9 42
2018-03-24 16:00:00 17 10 Sudeste 37 Sur 0 1014.1 -1.2 41
2018-03-24 15:00:00 16.8 8 Oeste 39 Noroeste 0 1014.8 -0.6 48
2018-03-24 14:00:00 15.9 12 Oeste 37 Oeste 0 1014.9 -0.5 44
2018-03-24 13:00:00 15.5 15 Noroeste 39 Noroeste 0 1015.3 0.5 46
2018-03-24 12:00:00 14.6 14 Noroeste 39 Oeste 0 1015.4 1.4 53
2018-03-24 11:00:00 13 10 Noroeste 37 Oeste 0 1015.4 1.9 59
2018-03-24 10:00:00 12.6 10 Oeste 35 Noroeste 0 1014.8 2.2 63
2018-03-24 09:00:00 11.4 9 Oeste 28 Sudoeste 0 1014 2.6 71
2018-03-24 08:00:00 9.7 7 Oeste 23 Noroeste 0 1013.5 2.6 77
2018-03-24 07:00:00 9.9 9 Noroeste 29 Noroeste 0 1012.6 2.8 77
2018-03-24 06:00:00 10.1 9 Noroeste 33 Noroeste 0 1011.4 1 80
2018-03-24 05:00:00 10.9 22 Noroeste 45 Noroeste 0 1010.9 1.8 76
2018-03-24 04:00:00 11 15 Noroeste 37 Norte 0 1009.8 -0.2 81
2018-03-24 03:00:00 10.6 14 Noroeste 58 Sudoeste 2.8 1010.4 -0.7 91
2018-03-24 02:00:00 14.3 20 Sudoeste 40 Sudoeste 0 1009.1 -3.4 93
2018-03-24 01:00:00 14.2 21 Sudoeste 41 Sur 0 1010 -3.7 93
2018-03-24 00:00:00 13.8 18 Sudoeste 40 Sur 0 1011.1 -2.7 96
2018-03-23 23:00:00 13.8 18 Sudoeste 33 Sudoeste 0 1012.5 -1.9 94
2018-03-23 22:00:00 14.2 15 Sudoeste 26 Oeste 0 1013.7 -1.3 88
2018-03-23 21:00:00 14.6 6 Oeste 19 Sudoeste 0 1013.8 -1.2 85
2018-03-23 20:00:00 15.4 11 Oeste 19 Oeste 0 1014.4 -1.2 83
2018-03-23 19:00:00 16.2 12 Sudoeste 25 Sudoeste 0 1015 -1.7 78
2018-03-23 18:00:00 16.1 9 Sudeste 32 Este 0 1015 -3.2 98
2018-03-23 17:00:00 15.5 18 Este 38 Sudeste 0.4 1015.6 -4.2 98
2018-03-23 16:00:00 15 20 Sudeste 40 Sudeste 0 1016.7 -4 97
2018-03-23 15:00:00 15 18 Sudeste 35 Sudeste 0 1018.2 -3.2 90
2018-03-23 14:00:00 14.8 21 Este 34 Norte 0 1019.8 -2.1 88
2018-03-23 13:00:00 15.2 5 Nordeste 28 Este 0 1020.7 -1.5 79
2018-03-23 12:00:00 15.6 9 Sudeste 27 Sudeste 0 1021.4 -1 74
2018-03-23 11:00:00 14.2 11 Sur 22 Sur 0 1021.9 -0.6 79
2018-03-23 10:00:00 12.9 10 Sur 19 Sudeste 0 1022.2 -0.2 83
2018-03-23 09:00:00 11.9 3 Sudeste 11 Norte 0 1022.4 0 88
2018-03-23 08:00:00 10.5 5 Sudeste 12 Sur 0 1022.5 -0.1 88
2018-03-23 07:00:00 9.9 4 Sudoeste 11 Sur 0 1022.4 -0.6 89
2018-03-23 06:00:00 9.4 2 Sudoeste 9 Oeste 0 1022.4 -1.2 90
2018-03-23 05:00:00 8.3 4 Oeste 12 Noroeste 0 1022.6 -1.7 89
2018-03-23 04:00:00 8.8 3 Oeste 23 Noroeste 0 1023 -1.4 86
2018-03-23 03:00:00 9.4 9 Noroeste 24 Norte 0 1023.6 -0.8 85
2018-03-23 02:00:00 10 10 Noroeste 27 Noroeste 0 1024.3 0.1 82
2018-03-23 01:00:00 10.1 11 Noroeste 28 Norte 0 1024.4 0.3 83
2018-03-23 00:00:00 10.3 13 Noroeste 26 Norte 0 1024.4 0.4 79